Time;durP1;ratioP1;P1;durP2;ratioP2;P2;SDS_P1;SDS_P2;PMS_P1;PMS_P2;Temp;Humidity;BMP_temperature;BMP_pressure;BME280_temperature;BME280_humidity;BME280_pressure;Samples;Min_cycle;Max_cycle;Signal;HPM_P1;HPM_P2
2024/01/07 00:02:14;;;;;;;49.97;27.95;;;;;;;6.54;89.34;98447.59;5111204;28;20020;-39
2024/01/07 00:04:42;;;;;;;52.08;29.27;;;;;;;6.03;92.28;98421.91;5110988;28;20438;-39
2024/01/07 00:07:08;;;;;;;54.80;29.50;;;;;;;6.30;90.79;98416.56;5110475;28;20130;-39
2024/01/07 00:09:33;;;;;;;54.70;29.70;;;;;;;6.17;90.95;98401.56;5110713;28;20550;-38
2024/01/07 00:11:58;;;;;;;55.50;28.65;;;;;;;6.16;91.28;98366.41;5110957;28;20024;-39
2024/01/07 00:14:24;;;;;;;59.13;29.17;;;;;;;6.29;90.69;98351.53;5110735;28;20495;-38
2024/01/07 00:16:49;;;;;;;47.80;27.55;;;;;;;6.42;90.52;98344.38;5110697;28;20026;-36
2024/01/07 00:19:15;;;;;;;53.47;28.15;;;;;;;6.20;91.35;98320.06;5110441;28;20046;-39
2024/01/07 00:21:40;;;;;;;51.75;28.45;;;;;;;6.24;91.85;98342.41;5110808;28;20026;-37
2024/01/07 00:24:05;;;;;;;51.08;29.33;;;;;;;6.40;91.56;98358.81;5110117;28;20106;-39
2024/01/07 00:26:31;;;;;;;58.53;30.48;;;;;;;6.61;91.28;98332.06;5110315;28;20035;-39
2024/01/07 00:28:56;;;;;;;53.25;28.73;;;;;;;6.92;89.35;98348.97;5110483;28;20157;-39
2024/01/07 00:31:22;;;;;;;54.13;30.33;;;;;;;6.96;89.14;98352.78;5110397;28;20022;-38
2024/01/07 00:33:47;;;;;;;55.83;29.25;;;;;;;6.76;89.58;98345.00;5109860;28;20059;-39
2024/01/07 00:36:12;;;;;;;52.88;28.35;;;;;;;6.57;91.06;98343.28;5110047;28;20449;-39
2024/01/07 00:38:38;;;;;;;49.33;27.63;;;;;;;6.70;90.31;98323.88;5109545;28;20024;-37
2024/01/07 00:41:03;;;;;;;55.05;28.88;;;;;;;6.88;90.01;98329.25;5109885;28;20134;-37
2024/01/07 00:43:28;;;;;;;46.92;26.95;;;;;;;6.65;90.50;98330.63;5110685;28;20108;-36
2024/01/07 00:45:54;;;;;;;48.47;27.23;;;;;;;6.82;91.11;98338.06;5110621;28;20027;-35
2024/01/07 00:48:19;;;;;;;48.63;27.38;;;;;;;6.94;90.15;98335.53;5110481;28;20023;-36
2024/01/07 00:50:44;;;;;;;46.58;26.27;;;;;;;7.13;89.56;98320.53;5111351;28;20031;-36
2024/01/07 00:53:10;;;;;;;45.58;25.35;;;;;;;7.09;89.86;98322.81;5110431;28;20027;-38
2024/01/07 00:55:35;;;;;;;45.28;26.58;;;;;;;6.96;91.00;98299.09;5110432;28;20424;-38
2024/01/07 00:58:02;;;;;;;48.33;26.27;;;;;;;7.09;89.79;98290.25;5108942;28;20127;-38
2024/01/07 01:00:28;;;;;;;50.35;26.45;;;;;;;7.20;89.40;98295.66;5110246;28;20020;-38
2024/01/07 01:02:54;;;;;;;48.60;26.95;;;;;;;7.22;89.87;98292.78;5110332;28;20051;-39
2024/01/07 01:05:19;;;;;;;49.10;28.75;;;;;;;7.40;89.05;98292.00;5110025;28;20020;-37
2024/01/07 01:07:45;;;;;;;55.10;27.75;;;;;;;7.47;87.84;98284.00;5110207;28;20058;-39
2024/01/07 01:10:10;;;;;;;49.50;26.20;;;;;;;7.13;90.15;98263.13;5110099;28;20052;-36
2024/01/07 01:12:36;;;;;;;45.42;25.42;;;;;;;7.00;91.29;98232.31;5110093;28;20099;-38
2024/01/07 01:15:01;;;;;;;52.33;26.67;;;;;;;6.83;91.91;98170.44;5110391;28;20115;-39
2024/01/07 01:17:26;;;;;;;49.40;26.80;;;;;;;7.02;92.54;98165.97;5110459;28;20050;-39
2024/01/07 01:19:52;;;;;;;50.55;27.40;;;;;;;6.95;93.37;98189.03;5110183;28;20184;-37
2024/01/07 01:22:17;;;;;;;46.05;26.20;;;;;;;7.20;92.15;98192.47;5110211;28;20035;-39
2024/01/07 01:24:45;;;;;;;47.42;26.42;;;;;;;7.18;92.14;98178.66;5110372;28;20107;-39
2024/01/07 01:27:11;;;;;;;49.70;27.80;;;;;;;7.10;92.45;98191.34;5110288;28;20194;-26
2024/01/07 01:29:37;;;;;;;49.50;26.75;;;;;;;7.11;93.75;98195.63;5110601;28;20157;-24
2024/01/07 01:32:02;;;;;;;50.50;28.08;;;;;;;7.47;91.98;98189.53;5110220;28;20505;-24
2024/01/07 01:34:27;;;;;;;50.17;26.88;;;;;;;7.42;91.31;98161.09;5109749;28;20020;-39
2024/01/07 01:36:53;;;;;;;51.88;26.92;;;;;;;7.30;91.55;98154.91;5110983;28;20015;-37
2024/01/07 01:39:18;;;;;;;46.25;26.20;;;;;;;7.10;92.44;98144.53;5113746;28;20019;-39
2024/01/07 01:41:44;;;;;;;49.95;26.15;;;;;;;7.20;92.81;98130.81;5112324;28;20106;-38
2024/01/07 01:44:09;;;;;;;52.00;26.52;;;;;;;7.30;92.53;98109.91;5113975;28;20494;-38
2024/01/07 01:46:35;;;;;;;53.05;27.80;;;;;;;7.57;91.45;98114.88;5114086;28;20055;-37
2024/01/07 01:49:01;;;;;;;53.65;29.55;;;;;;;7.49;91.13;98100.13;5114102;28;20080;-38
2024/01/07 01:51:27;;;;;;;49.97;28.45;;;;;;;7.43;92.84;98093.88;5113800;28;20054;-38
2024/01/07 01:53:54;;;;;;;52.90;29.13;;;;;;;7.46;94.55;98091.81;5112564;28;20648;-39
2024/01/07 01:56:20;;;;;;;54.55;28.77;;;;;;;7.48;94.14;98090.53;5112740;28;20476;-38
2024/01/07 01:58:46;;;;;;;49.42;27.27;;;;;;;7.44;96.80;98095.50;5112811;28;20020;-38
2024/01/07 02:01:12;;;;;;;51.97;27.48;;;;;;;7.46;98.15;98086.50;5112813;27;20032;-38
2024/01/07 02:03:38;;;;;;;51.40;27.25;;;;;;;7.40;98.78;98090.84;5112565;28;20130;-39
2024/01/07 02:06:04;;;;;;;54.65;25.27;;;;;;;7.40;98.58;98069.69;5112916;27;20062;-38
2024/01/07 02:08:29;;;;;;;50.42;27.00;;;;;;;7.57;98.37;98068.03;5113829;28;20022;-39
2024/01/07 02:10:55;;;;;;;53.22;26.58;;;;;;;7.86;97.32;98059.47;5113707;27;20051;-36
2024/01/07 02:13:20;;;;;;;48.88;25.92;;;;;;;7.79;95.24;98041.84;5113470;28;20067;-39
2024/01/07 02:15:46;;;;;;;46.92;25.42;;;;;;;7.72;95.66;98041.16;5113581;27;20027;-39
2024/01/07 02:18:11;;;;;;;47.55;26.15;;;;;;;7.60;96.31;98040.31;5113463;28;20383;-39
2024/01/07 02:20:37;;;;;;;50.30;26.20;;;;;;;7.54;95.41;98009.44;5113838;28;20122;-39
2024/01/07 02:23:04;;;;;;;44.05;24.98;;;;;;;7.51;96.32;98039.00;5113285;28;20178;-36
2024/01/07 02:25:29;;;;;;;46.33;24.77;;;;;;;7.37;96.46;98011.94;5113265;27;20042;-39
2024/01/07 02:27:54;;;;;;;44.80;24.73;;;;;;;7.81;95.37;98046.94;5113442;28;20524;-37
2024/01/07 02:30:20;;;;;;;46.45;24.33;;;;;;;7.68;94.54;98037.34;5113374;28;20077;-38
2024/01/07 02:32:45;;;;;;;43.25;24.17;;;;;;;7.58;94.64;98024.66;5113166;28;20016;-39
2024/01/07 02:35:11;;;;;;;42.83;24.25;;;;;;;7.70;94.90;98008.78;5114289;27;20420;-39
2024/01/07 02:37:36;;;;;;;50.08;26.10;;;;;;;7.84;95.08;97996.16;5128591;27;20015;-37
2024/01/07 02:40:02;;;;;;;44.72;25.58;;;;;;;7.84;95.17;97982.91;5107485;28;20110;-39
2024/01/07 02:42:27;;;;;;;46.78;25.38;;;;;;;7.77;95.81;97974.28;5092199;28;20046;-39
2024/01/07 02:44:53;;;;;;;46.22;25.23;;;;;;;7.82;97.40;97961.97;5092621;28;20047;-37
2024/01/07 02:47:18;;;;;;;46.95;25.42;;;;;;;7.89;99.26;97951.25;5092129;28;20016;-35
2024/01/07 02:49:43;;;;;;;44.22;24.52;;;;;;;7.86;99.60;97953.53;5092582;28;20503;-39
2024/01/07 02:52:09;;;;;;;47.05;24.48;;;;;;;8.08;99.87;97956.44;5092613;28;20012;-36
2024/01/07 02:54:34;;;;;;;43.58;24.48;;;;;;;8.25;98.87;97956.56;5092591;28;20081;-38
2024/01/07 02:56:59;;;;;;;42.05;24.52;;;;;;;8.08;98.82;97959.88;5091900;28;20031;-41
2024/01/07 02:59:25;;;;;;;43.67;24.10;;;;;;;7.94;97.80;97977.03;5092349;28;20476;-38
2024/01/07 03:01:50;;;;;;;50.05;26.80;;;;;;;8.27;98.20;97975.69;5103381;28;20027;-39
2024/01/07 03:04:16;;;;;;;46.63;25.73;;;;;;;8.49;98.32;97967.94;5112890;27;20031;-38
2024/01/07 03:06:41;;;;;;;46.20;24.50;;;;;;;8.39;96.99;97963.22;5113054;28;20058;-27
2024/01/07 03:09:07;;;;;;;47.35;25.20;;;;;;;8.22;98.75;97985.13;5112721;28;20486;-24
2024/01/07 03:11:33;;;;;;;47.55;25.30;;;;;;;8.17;100.00;97998.25;5112872;28;20019;-25
2024/01/07 03:13:59;;;;;;;49.08;25.70;;;;;;;8.33;99.96;97993.31;5112712;28;20091;-24
2024/01/07 03:16:26;;;;;;;50.30;25.05;;;;;;;8.57;99.96;97986.97;5111220;28;20475;-25
2024/01/07 03:18:51;;;;;;;47.33;25.75;;;;;;;8.55;99.70;97980.28;5112765;28;20035;-24
2024/01/07 03:21:22;;;;;;;47.10;26.25;;;;;;;8.66;99.23;97982.09;5112406;28;20020;-25
2024/01/07 03:23:48;;;;;;;48.22;24.95;;;;;;;8.49;100.00;97997.13;5112442;28;20467;-25
2024/01/07 03:26:14;;;;;;;49.05;25.30;;;;;;;8.34;100.00;97992.25;5112333;28;20378;-25
2024/01/07 03:28:39;;;;;;;52.10;25.58;;;;;;;8.56;100.00;98001.25;5112383;28;20376;-25
2024/01/07 03:31:09;;;;;;;48.83;24.85;;;;;;;8.74;100.00;97983.59;5112430;28;20038;-25
2024/01/07 03:33:34;;;;;;;;;;;;;;;8.98;100.00;97973.72;5112853;28;20031;-25
2024/01/07 03:36:00;;;;;;;46.42;21.75;;;;;;;9.42;100.00;97978.50;5112044;28;19968;-25
2024/01/07 03:38:25;;;;;;;46.08;22.50;;;;;;;9.61;100.00;97971.13;5112144;28;20030;-25
2024/01/07 03:40:51;;;;;;;41.78;22.08;;;;;;;9.62;100.00;97948.84;5111989;28;20058;-24
2024/01/07 03:43:16;;;;;;;42.30;22.40;;;;;;;9.75;100.00;97954.63;5111583;28;20062;-25
2024/01/07 03:45:43;;;;;;;40.00;21.20;;;;;;;9.82;100.00;97967.75;5112035;28;20027;-25
2024/01/07 03:48:08;;;;;;;37.90;20.65;;;;;;;9.67;100.00;97975.47;5112101;28;20107;-25
2024/01/07 03:50:34;;;;;;;39.38;20.67;;;;;;;9.54;100.00;97956.16;5111918;28;20047;-25
2024/01/07 03:52:59;;;;;;;44.20;22.65;;;;;;;9.40;100.00;97941.56;5112158;28;20039;-26
2024/01/07 03:55:24;;;;;;;40.80;23.75;;;;;;;9.43;100.00;97924.38;5111841;28;20546;-25
2024/01/07 03:57:50;;;;;;;40.30;22.65;;;;;;;9.28;100.00;97936.31;5111580;28;20023;-25
2024/01/07 04:00:16;;;;;;;42.42;22.63;;;;;;;9.48;100.00;97950.97;5110863;28;20024;-25
2024/01/07 04:02:41;;;;;;;40.70;21.67;;;;;;;9.50;100.00;97951.53;5111398;28;20509;-25
2024/01/07 04:05:07;;;;;;;39.83;21.27;;;;;;;9.58;100.00;97944.00;5111647;28;20028;-25
2024/01/07 04:07:34;;;;;;;39.40;20.92;;;;;;;9.87;100.00;97921.88;5111499;28;20016;-26
2024/01/07 04:09:59;;;;;;;34.85;19.67;;;;;;;9.58;100.00;97914.78;5111528;28;20044;-25
2024/01/07 04:12:24;;;;;;;39.28;20.83;;;;;;;9.75;100.00;97890.88;5111288;28;20043;-25
2024/01/07 04:14:50;;;;;;;36.72;21.27;;;;;;;9.79;100.00;97877.91;5111619;28;20379;-25
2024/01/07 04:17:15;;;;;;;39.08;20.63;;;;;;;9.50;100.00;97879.84;5111789;28;20057;-25
2024/01/07 04:19:40;;;;;;;38.28;21.52;;;;;;;9.24;100.00;97868.84;5111380;28;20034;-26
2024/01/07 04:22:06;;;;;;;43.22;21.98;;;;;;;9.10;100.00;97878.13;5111345;28;20057;-26
2024/01/07 04:24:31;;;;;;;38.47;22.25;;;;;;;9.02;100.00;97908.50;5111265;28;20031;-26
2024/01/07 04:26:56;;;;;;;39.75;23.65;;;;;;;9.14;100.00;97922.56;5110897;28;20137;-26
2024/01/07 04:29:22;;;;;;;42.05;23.33;;;;;;;9.08;100.00;97914.72;5111526;28;20024;-26
2024/01/07 04:31:47;;;;;;;43.17;23.45;;;;;;;9.03;100.00;97904.84;5111397;28;20460;-25
2024/01/07 04:34:13;;;;;;;46.92;24.48;;;;;;;9.11;100.00;97917.72;5111298;28;20032;-25
2024/01/07 04:36:38;;;;;;;43.00;23.38;;;;;;;9.10;100.00;97912.63;5111079;28;20470;-26
2024/01/07 04:39:03;;;;;;;43.85;23.50;;;;;;;9.14;100.00;97927.84;5111568;28;20026;-25
2024/01/07 04:41:29;;;;;;;44.38;23.17;;;;;;;8.96;100.00;97928.84;5111414;28;20424;-25
2024/01/07 04:43:54;;;;;;;40.95;23.05;;;;;;;9.10;100.00;97942.66;5110888;28;20032;-25
2024/01/07 04:46:20;;;;;;;44.72;23.38;;;;;;;8.87;100.00;97958.63;5111048;28;20099;-25
2024/01/07 04:48:45;;;;;;;43.60;23.92;;;;;;;9.02;100.00;97942.22;5110898;28;20498;-25
2024/01/07 04:51:10;;;;;;;43.47;24.73;;;;;;;8.99;100.00;97909.00;5111087;28;20038;-24
2024/01/07 04:53:36;;;;;;;44.92;24.35;;;;;;;9.28;100.00;97891.19;5111112;28;20027;-25
2024/01/07 04:56:02;;;;;;;43.97;24.60;;;;;;;9.12;100.00;97899.94;5111047;28;20038;-38
2024/01/07 04:58:28;;;;;;;44.92;23.80;;;;;;;9.12;100.00;97890.13;5110950;28;20020;-37
2024/01/07 05:00:53;;;;;;;42.63;23.52;;;;;;;9.10;100.00;97880.78;5111211;28;20015;-39
2024/01/07 05:03:18;;;;;;;41.53;23.73;;;;;;;8.98;100.00;97888.81;5111440;28;20394;-39
2024/01/07 05:05:44;;;;;;;41.53;24.00;;;;;;;9.17;100.00;97886.75;5110794;28;20028;-39
2024/01/07 05:08:09;;;;;;;44.40;23.58;;;;;;;9.12;100.00;97898.09;5111011;28;20474;-39
2024/01/07 05:10:34;;;;;;;42.38;24.15;;;;;;;9.07;100.00;97899.88;5111917;28;20075;-39
2024/01/07 05:13:04;;;;;;;42.53;24.05;;;;;;;9.09;100.00;97898.56;5115263;28;20032;-36
2024/01/07 05:15:30;;;;;;;44.92;25.52;;;;;;;9.09;100.00;97913.69;5115150;28;20028;-39
2024/01/07 05:17:55;;;;;;;45.90;24.98;;;;;;;9.16;100.00;97901.88;5115040;28;20463;-36
2024/01/07 05:20:21;;;;;;;45.88;25.13;;;;;;;9.01;100.00;97901.63;5114787;28;20437;-38
2024/01/07 05:22:46;;;;;;;43.95;26.13;;;;;;;9.00;100.00;97892.03;5115045;28;20385;-39
2024/01/07 05:25:12;;;;;;;44.47;23.85;;;;;;;8.88;100.00;97884.13;5114821;28;20055;-26
2024/01/07 05:27:37;;;;;;;48.72;26.83;;;;;;;8.83;100.00;97899.94;5114266;28;20491;-26
2024/01/07 05:30:03;;;;;;;49.78;27.27;;;;;;;8.99;100.00;97906.34;5114967;28;20098;-26
2024/01/07 05:32:28;;;;;;;46.47;25.63;;;;;;;8.88;100.00;97910.66;5114443;28;20068;-26
2024/01/07 05:34:54;;;;;;;50.33;25.50;;;;;;;8.96;100.00;97909.47;5114770;28;20094;-26
2024/01/07 05:37:19;;;;;;;53.28;28.95;;;;;;;9.26;99.96;97892.50;5114643;28;20027;-25
2024/01/07 05:39:45;;;;;;;56.92;29.85;;;;;;;9.23;99.46;97872.53;5112920;28;20160;-27
2024/01/07 05:42:10;;;;;;;49.67;27.08;;;;;;;9.20;100.00;97878.31;5115357;28;20028;-26
2024/01/07 05:44:35;;;;;;;49.72;27.90;;;;;;;9.32;98.41;97875.59;5114872;28;20412;-27
2024/01/07 05:47:01;;;;;;;51.00;24.67;;;;;;;8.91;98.96;97882.84;5114691;28;20092;-27
2024/01/07 05:49:27;;;;;;;44.10;23.98;;;;;;;8.65;99.76;97887.69;5103632;28;20492;-26
2024/01/07 05:51:52;;;;;;;44.60;23.33;;;;;;;8.53;100.00;97890.38;5098303;28;20022;-38
2024/01/07 05:54:17;;;;;;;44.45;24.67;;;;;;;8.52;100.00;97907.31;5114060;28;20047;-39
2024/01/07 05:56:43;;;;;;;43.83;25.15;;;;;;;8.59;100.00;97915.94;5113802;28;20106;-38
2024/01/07 05:59:08;;;;;;;52.30;25.90;;;;;;;8.76;100.00;97909.91;5114121;28;20106;-36
2024/01/07 06:01:34;;;;;;;49.17;24.92;;;;;;;8.85;100.00;97919.09;5112965;28;20035;-37
2024/01/07 06:04:00;;;;;;;47.90;26.65;;;;;;;8.95;100.00;97913.97;5114362;28;20032;-39
2024/01/07 06:06:25;;;;;;;46.30;25.55;;;;;;;9.06;100.00;97904.34;5114511;28;20080;-35
2024/01/07 06:08:51;;;;;;;48.47;26.02;;;;;;;9.04;100.00;97885.19;5113856;28;20360;-39
2024/01/07 06:11:20;;;;;;;57.50;27.27;;;;;;;9.03;100.00;97886.25;5123371;27;20039;-36
2024/01/07 06:13:45;;;;;;;44.88;25.63;;;;;;;9.12;100.00;97862.78;5121227;27;20148;-37
2024/01/07 06:16:11;;;;;;;45.83;24.30;;;;;;;9.12;100.00;97852.16;5122509;27;20318;-40
2024/01/07 06:18:36;;;;;;;43.28;25.02;;;;;;;9.11;100.00;97874.44;5114404;28;20474;-40
2024/01/07 06:21:02;;;;;;;45.35;24.50;;;;;;;9.28;100.00;97891.19;5113694;28;20112;-39
2024/01/07 06:23:27;;;;;;;47.17;25.50;;;;;;;9.36;100.00;97892.66;5113596;28;20398;-38
2024/01/07 06:25:53;;;;;;;43.88;23.85;;;;;;;9.52;100.00;97912.28;5113791;28;20110;-39
2024/01/07 06:28:18;;;;;;;40.53;23.95;;;;;;;9.51;100.00;97902.72;5113935;28;20025;-39
2024/01/07 06:30:43;;;;;;;45.30;25.30;;;;;;;9.79;100.00;97889.34;5113641;28;20486;-39
2024/01/07 06:33:09;;;;;;;44.03;24.23;;;;;;;9.84;100.00;97899.22;5113829;28;20019;-39
2024/01/07 06:35:34;;;;;;;43.03;25.02;;;;;;;9.92;100.00;97901.50;5120392;27;20033;-39
2024/01/07 06:37:59;;;;;;;44.30;24.70;;;;;;;10.16;100.00;97887.97;5113413;28;20028;-39
2024/01/07 06:40:25;;;;;;;46.47;25.83;;;;;;;10.21;99.95;97881.94;5113413;28;20493;-39
2024/01/07 06:42:50;;;;;;;46.22;25.40;;;;;;;10.60;96.86;97873.91;5113546;28;20062;-38
2024/01/07 06:45:19;;;;;;;40.65;22.63;;;;;;;10.74;96.22;97875.16;5113219;28;20048;-38
2024/01/07 06:47:44;;;;;;;39.00;22.90;;;;;;;11.10;94.59;97856.84;5112795;28;20088;-40
2024/01/07 06:50:10;;;;;;;38.90;22.52;;;;;;;11.15;94.12;97860.38;5113047;28;20422;-36
2024/01/07 06:52:36;;;;;;;37.55;22.17;;;;;;;11.32;94.76;97889.53;5112835;28;20658;-39
2024/01/07 06:55:01;;;;;;;41.15;22.90;;;;;;;11.52;92.30;97883.59;5112124;28;20085;-40
2024/01/07 06:57:26;;;;;;;52.53;28.23;;;;;;;11.76;91.91;97887.75;5112703;28;20016;-38
2024/01/07 06:59:52;;;;;;;50.33;24.08;;;;;;;11.89;90.98;97906.78;5112419;28;20019;-39
2024/01/07 07:02:20;;;;;;;36.90;22.40;;;;;;;12.11;90.37;97916.53;5112610;28;20031;-38
2024/01/07 07:04:45;;;;;;;34.17;20.23;;;;;;;12.13;87.63;97923.22;5112920;28;20093;-37
2024/01/07 07:07:10;;;;;;;29.33;18.35;;;;;;;11.62;88.19;97927.34;5112366;28;20035;-39
2024/01/07 07:09:36;;;;;;;34.25;20.08;;;;;;;11.50;88.29;97923.00;5093394;28;20048;-39
2024/01/07 07:12:01;;;;;;;33.35;20.13;;;;;;;11.33;88.90;97931.09;5108100;28;20026;-26
2024/01/07 07:14:26;;;;;;;34.40;19.98;;;;;;;11.35;89.88;97915.66;5112515;28;20463;-26
2024/01/07 07:16:52;;;;;;;37.42;20.35;;;;;;;10.95;91.30;97908.91;5112659;28;20055;-26
2024/01/07 07:19:17;;;;;;;34.28;20.23;;;;;;;10.60;92.90;97921.81;5112673;28;20031;-26
2024/01/07 07:21:43;;;;;;;37.33;21.95;;;;;;;10.95;91.79;97919.53;5112286;28;20390;-27
2024/01/07 07:24:09;;;;;;;36.28;20.92;;;;;;;10.95;91.12;97913.44;5112367;28;20073;-26
2024/01/07 07:26:35;;;;;;;35.72;21.85;;;;;;;10.63;92.49;97908.00;5112521;28;20028;-27
2024/01/07 07:29:02;;;;;;;36.65;21.35;;;;;;;10.39;93.81;97916.22;5112453;28;20028;-27
2024/01/07 07:31:27;;;;;;;36.78;22.38;;;;;;;10.49;94.52;97921.69;5110554;28;20098;-27
2024/01/07 07:33:52;;;;;;;37.35;22.83;;;;;;;10.74;93.73;97915.84;5111985;28;20131;-28
2024/01/07 07:36:18;;;;;;;35.78;21.58;;;;;;;10.87;91.84;97909.34;5112143;28;20071;-27
2024/01/07 07:38:43;;;;;;;33.60;21.50;;;;;;;10.72;92.16;97922.50;5111940;28;20028;-26
2024/01/07 07:41:08;;;;;;;39.70;22.05;;;;;;;10.43;93.95;97935.94;5111983;28;20489;-27
2024/01/07 07:43:34;;;;;;;38.70;22.23;;;;;;;10.48;93.12;97925.38;5110596;28;20027;-27
2024/01/07 07:46:01;;;;;;;34.78;21.25;;;;;;;10.50;93.30;97917.16;5111718;28;20451;-27
2024/01/07 07:48:27;;;;;;;42.92;22.92;;;;;;;10.15;96.28;97926.25;5111526;28;20491;-27
2024/01/07 07:50:53;;;;;;;39.40;21.95;;;;;;;10.20;96.32;97933.50;5111817;28;20080;-26
2024/01/07 07:53:18;;;;;;;43.75;24.02;;;;;;;10.51;95.11;97932.88;5112041;28;20429;-26
2024/01/07 07:55:44;;;;;;;41.35;23.38;;;;;;;10.37;95.89;97927.09;5111792;28;20106;-27
2024/01/07 07:58:09;;;;;;;42.80;24.67;;;;;;;10.48;96.75;97921.94;5111724;28;20028;-27
2024/01/07 08:00:35;;;;;;;35.38;21.55;;;;;;;10.72;97.25;97914.50;5129942;27;20523;-27
2024/01/07 08:03:00;;;;;;;36.78;22.08;;;;;;;11.09;99.38;97911.16;5132213;27;20556;-26
2024/01/07 08:05:26;;;;;;;32.28;20.33;;;;;;;11.48;93.41;97911.78;5127353;27;20095;-26
2024/01/07 08:07:51;;;;;;;33.28;21.67;;;;;;;11.49;90.07;97920.59;5114579;27;20019;-28
2024/01/07 08:10:16;;;;;;;36.85;21.65;;;;;;;10.87;93.78;97909.34;5125035;27;20489;-28
2024/01/07 08:12:42;;;;;;;36.10;22.23;;;;;;;10.57;96.94;97909.81;5125134;27;20023;-28
2024/01/07 08:15:08;;;;;;;38.70;22.02;;;;;;;10.54;97.79;97913.75;5124770;27;20051;-26
2024/01/07 08:17:34;;;;;;;42.65;23.48;;;;;;;10.53;98.01;97919.34;5124051;27;20019;-26
2024/01/07 08:20:01;;;;;;;47.67;25.55;;;;;;;10.60;96.86;97917.28;5107035;28;20023;-28
2024/01/07 08:22:26;;;;;;;44.17;25.70;;;;;;;10.50;97.87;97904.66;5091009;28;20107;-27
2024/01/07 08:24:51;;;;;;;46.38;26.98;;;;;;;10.72;96.44;97909.19;5090928;28;20654;-26
2024/01/07 08:27:17;;;;;;;47.25;27.65;;;;;;;10.76;97.98;97921.72;5091142;28;20035;-27
2024/01/07 08:29:43;;;;;;;43.95;27.58;;;;;;;11.22;96.84;97931.25;5089573;28;20530;-27
2024/01/07 08:32:09;;;;;;;47.20;25.80;;;;;;;11.18;94.53;97932.81;5091115;28;20096;-27
2024/01/07 08:34:34;;;;;;;43.55;25.65;;;;;;;11.13;95.13;97925.56;5091412;28;20103;-26
2024/01/07 08:37:00;;;;;;;40.60;23.83;;;;;;;10.95;96.30;97930.19;5091135;28;20459;-27
2024/01/07 08:39:25;;;;;;;39.55;22.92;;;;;;;11.19;95.34;97915.78;5105484;28;20023;-27
2024/01/07 08:41:51;;;;;;;39.88;23.40;;;;;;;11.32;95.28;97916.16;5109734;28;20042;-28
2024/01/07 08:44:16;;;;;;;37.17;22.92;;;;;;;11.27;96.63;97924.13;5111211;28;20024;-27
2024/01/07 08:46:42;;;;;;;41.00;24.67;;;;;;;11.23;95.84;97931.03;5113733;28;20034;-27
2024/01/07 08:49:07;;;;;;;38.92;23.90;;;;;;;11.39;94.31;97921.31;5101858;28;20462;-27
2024/01/07 08:51:32;;;;;;;33.05;20.30;;;;;;;11.07;97.41;97921.25;5114735;28;20454;-28
2024/01/07 08:53:58;;;;;;;28.30;16.75;;;;;;;11.38;94.81;97910.91;5113585;28;20057;-26
2024/01/07 08:56:25;;;;;;;27.60;15.95;;;;;;;11.37;95.39;97917.28;5114781;28;20024;-27
2024/01/07 08:58:52;;;;;;;25.67;15.45;;;;;;;11.29;95.78;97921.19;5114678;28;20469;-27
2024/01/07 09:01:17;;;;;;;27.05;16.95;;;;;;;11.65;94.39;97916.16;5114543;28;20467;-24
2024/01/07 09:03:42;;;;;;;27.75;17.98;;;;;;;11.66;94.51;97923.13;5115140;27;20057;-27
2024/01/07 09:06:08;;;;;;;28.02;17.42;;;;;;;11.53;93.90;97919.00;5114849;28;20027;-26
2024/01/07 09:08:35;;;;;;;29.02;17.92;;;;;;;11.60;94.11;97922.28;5111524;28;20087;-26
2024/01/07 09:11:04;;;;;;;25.95;17.13;;;;;;;11.51;95.45;97910.47;5111920;28;20071;-27
2024/01/07 09:13:29;;;;;;;26.27;17.08;;;;;;;11.66;93.52;97907.94;5112259;28;20459;-25
2024/01/07 09:15:54;;;;;;;28.55;17.25;;;;;;;11.48;94.88;97902.97;5101305;28;20053;-27
2024/01/07 09:18:20;;;;;;;27.95;14.80;;;;;;;11.44;93.89;97909.88;5092872;28;20042;-27
2024/01/07 09:20:45;;;;;;;28.27;16.10;;;;;;;11.53;94.25;97906.50;5092047;28;20111;-28
2024/01/07 09:23:11;;;;;;;28.15;17.02;;;;;;;11.85;92.52;97896.88;5092683;28;20035;-27
2024/01/07 09:25:37;;;;;;;35.45;20.65;;;;;;;11.61;94.23;97893.75;5093326;28;20461;-27
2024/01/07 09:28:02;;;;;;;30.30;20.13;;;;;;;11.67;94.12;97893.56;5093652;28;20024;-27
2024/01/07 09:30:28;;;;;;;29.00;16.23;;;;;;;11.54;93.06;97878.00;5110970;28;20659;-26
2024/01/07 09:32:53;;;;;;;25.10;14.70;;;;;;;11.63;93.05;97886.31;5114131;28;20505;-28
2024/01/07 09:35:19;;;;;;;19.25;12.43;;;;;;;11.64;92.73;97882.59;5114294;28;20056;-27
2024/01/07 09:37:44;;;;;;;20.08;11.65;;;;;;;11.62;93.12;97887.38;5114274;28;20030;-27
2024/01/07 09:40:11;;;;;;;17.73;11.85;;;;;;;11.84;91.67;97881.94;5114070;28;20463;-26
2024/01/07 09:42:36;;;;;;;16.50;9.77;;;;;;;11.95;90.72;97875.63;5114033;28;20031;-28
2024/01/07 09:45:03;;;;;;;11.82;7.68;;;;;;;11.88;90.53;97869.69;5098720;28;20107;-28
2024/01/07 09:47:29;;;;;;;11.07;7.82;;;;;;;12.23;88.71;97868.34;5093663;28;20491;-27
2024/01/07 09:49:55;;;;;;;14.45;8.00;;;;;;;12.20;88.23;97874.16;5093418;28;20099;-26
2024/01/07 09:52:20;;;;;;;12.63;7.43;;;;;;;12.37;87.71;97865.97;5093584;28;20430;-29
2024/01/07 09:54:51;;;;;;;10.77;7.07;;;;;;;12.29;88.36;97873.41;5093848;28;20027;-28
2024/01/07 09:57:16;;;;;;;15.15;7.80;;;;;;;12.48;87.03;97864.97;5092188;28;20020;-28
2024/01/07 09:59:41;;;;;;;16.05;8.23;;;;;;;12.32;89.31;97853.44;5093297;28;20106;-27
2024/01/07 10:02:07;;;;;;;15.23;9.38;;;;;;;12.03;90.25;97831.69;5093275;28;20055;-27
2024/01/07 10:04:32;;;;;;;18.70;8.75;;;;;;;12.35;89.10;97836.91;5093285;28;20488;-27
2024/01/07 10:06:58;;;;;;;13.10;8.48;;;;;;;12.40;87.76;97844.94;5093647;28;20027;-28
2024/01/07 10:09:27;;;;;;;17.00;9.90;;;;;;;12.45;88.88;97839.63;5091745;28;20469;-27
2024/01/07 10:11:53;;;;;;;18.08;10.98;;;;;;;12.39;89.14;97835.31;5113673;28;20019;-30
2024/01/07 10:14:22;;;;;;;23.02;13.43;;;;;;;12.30;91.24;97821.69;5104594;28;20514;-26
2024/01/07 10:16:47;;;;;;;23.08;13.40;;;;;;;12.38;90.48;97816.91;5092936;28;20399;-27
2024/01/07 10:19:19;;;;;;;21.13;12.43;;;;;;;12.65;88.60;97822.06;5092940;28;20024;-28
2024/01/07 10:21:45;;;;;;;18.90;13.40;;;;;;;12.82;86.97;97827.16;5093065;28;20024;-28
2024/01/07 10:24:11;;;;;;;24.52;15.00;;;;;;;12.87;86.97;97819.97;5093152;28;20339;-28
2024/01/07 10:26:41;;;;;;;22.90;15.80;;;;;;;12.71;88.92;97813.78;5092910;28;20028;-29
2024/01/07 10:29:08;;;;;;;27.52;17.67;;;;;;;12.77;89.19;97805.78;5093181;28;20073;-26
2024/01/07 10:31:34;;;;;;;27.80;16.45;;;;;;;12.60;89.59;97800.69;5103585;28;20024;-27
2024/01/07 10:33:59;;;;;;;25.27;15.73;;;;;;;12.81;89.25;97812.19;5113552;28;20020;-28
2024/01/07 10:36:25;;;;;;;25.80;15.88;;;;;;;12.97;87.47;97805.03;5113500;28;20016;-27
2024/01/07 10:38:51;;;;;;;29.38;16.45;;;;;;;12.86;87.50;97798.88;5113545;28;20023;-26
2024/01/07 10:41:18;;;;;;;27.73;15.88;;;;;;;12.97;87.21;97789.81;5113020;28;20034;-27
2024/01/07 10:43:46;;;;;;;27.77;16.00;;;;;;;12.94;87.01;97776.19;5113183;27;20130;-28
2024/01/07 10:46:13;;;;;;;26.75;16.30;;;;;;;13.02;87.26;97771.13;5113309;28;20111;-28
2024/01/07 10:49:00;;;;;;;26.05;16.42;;;;;;;13.02;87.27;97767.63;5113182;28;20495;-29
2024/01/07 10:51:28;;;;;;;27.45;17.20;;;;;;;13.21;86.31;97755.38;5113164;28;20019;-27
2024/01/07 10:53:56;;;;;;;26.55;16.83;;;;;;;13.13;86.94;97763.09;5112761;28;20046;-27
2024/01/07 10:56:25;;;;;;;26.05;17.27;;;;;;;13.52;85.88;97747.31;5110012;28;20387;-26
2024/01/07 10:58:54;;;;;;;23.10;14.65;;;;;;;13.78;84.01;97757.94;5092101;28;20016;-28
2024/01/07 11:01:21;;;;;;;22.42;14.75;;;;;;;13.92;82.91;97753.59;5092535;28;20122;-27
2024/01/07 11:04:00;;;;;;;32.97;21.05;;;;;;;14.08;82.18;97752.44;5091862;28;20036;-27
2024/01/07 11:06:31;;;;;;;22.65;13.73;;;;;;;14.24;80.34;97750.53;5092225;28;20032;-28
2024/01/07 11:09:12;;;;;;;22.10;12.48;;;;;;;14.56;78.53;97751.13;5091456;28;20020;-26
2024/01/07 11:11:42;;;;;;;22.08;10.73;;;;;;;14.55;77.79;97757.56;5108508;27;20023;-27
2024/01/07 11:14:26;;;;;;;;;;;;;;;14.88;77.14;97760.59;5112197;28;20475;-27
2024/01/07 11:16:53;;;;;;;15.60;8.82;;;;;;;15.08;73.07;97752.41;5112271;28;19907;-30